Time;durP1;ratioP1;P1;durP2;ratioP2;P2;SDS_P1;SDS_P2;PMS_P1;PMS_P2;Temp;Humidity;BMP_temperature;BMP_pressure;BME280_temperature;BME280_humidity;BME280_pressure;Samples;Min_cycle;Max_cycle;Signal;HPM_P1;HPM_P2
2022/07/21 00:01:46;;;;;;;;;3.00;3.00;;;;;23.62;56.34;101336.13;5060927;28;45180;-64
2022/07/21 00:04:11;;;;;;;;;4.00;4.00;;;;;23.54;56.58;101331.97;5077178;28;46359;-66
2022/07/21 00:06:37;;;;;;;;;3.50;3.50;;;;;23.27;56.90;101308.78;5077067;28;45486;-63
2022/07/21 00:09:02;;;;;;;;;3.75;2.75;;;;;23.32;57.35;101333.16;5077330;28;45613;-65
2022/07/21 00:11:28;;;;;;;;;3.75;3.75;;;;;23.41;56.91;101331.47;5078766;27;45379;-64
2022/07/21 00:13:53;;;;;;;;;3.25;3.25;;;;;23.25;57.34;101291.44;5078272;27;46425;-63
2022/07/21 00:16:19;;;;;;;;;3.00;3.00;;;;;23.40;57.12;101324.19;5060291;28;45470;-64
2022/07/21 00:18:44;;;;;;;;;4.50;3.00;;;;;23.44;57.48;101318.84;5060306;28;45516;-63
2022/07/21 00:21:10;;;;;;;;;3.50;3.50;;;;;23.47;56.93;101317.44;5078417;27;45420;-63
2022/07/21 00:23:35;;;;;;;;;6.00;6.00;;;;;23.34;56.88;101291.72;5076487;28;46481;-64
2022/07/21 00:26:01;;;;;;;;;5.00;3.25;;;;;23.54;57.26;101317.97;5078671;27;45377;-64
2022/07/21 00:28:26;;;;;;;;;4.00;4.00;;;;;23.49;57.01;101316.03;5077165;28;45420;-65
2022/07/21 00:30:52;;;;;;;;;3.50;3.50;;;;;23.51;56.78;101319.38;5077257;28;45397;-64
2022/07/21 00:33:17;;;;;;;;;7.00;7.00;;;;;23.34;57.25;101296.47;5077921;27;46186;-65
2022/07/21 00:35:43;;;;;;;;;5.50;5.00;;;;;23.48;57.02;101317.13;5078210;28;45363;-64
2022/07/21 00:38:08;;;;;;;;;5.50;5.50;;;;;23.48;57.26;101319.13;5077104;28;45402;-65
2022/07/21 00:40:34;;;;;;;;;7.00;5.00;;;;;23.44;56.94;101326.41;5076507;28;45413;-63
2022/07/21 00:42:59;;;;;;;;;6.00;5.25;;;;;23.40;56.90;101324.19;5078051;27;46349;-63
2022/07/21 00:45:25;;;;;;;;;14.75;10.75;;;;;23.40;57.25;101324.19;5077783;28;45340;-62
2022/07/21 00:47:50;;;;;;;;;5.75;5.00;;;;;23.41;57.05;101325.84;5076971;28;45371;-64
2022/07/21 00:50:17;;;;;;;;;6.25;6.25;;;;;23.36;57.32;101317.47;5077811;27;45309;-63
2022/07/21 00:52:43;;;;;;;;;6.00;4.20;;;;;23.38;57.54;101318.00;5059943;28;46474;-62
2022/07/21 00:55:13;;;;;;;;;5.00;5.00;;;;;23.38;57.37;101331.19;5076514;28;45919;-64
2022/07/21 00:57:38;;;;;;;;;5.00;5.00;;;;;23.37;57.04;101324.75;5076432;28;45428;-64
2022/07/21 01:00:05;;;;;;;;;2.75;2.75;;;;;23.15;57.83;101294.25;5077673;27;45360;-65
2022/07/21 01:02:33;;;;;;;;;3.00;3.00;;;;;23.29;57.60;101317.75;5076480;28;46929;-64
2022/07/21 01:04:58;;;;;;;;;5.00;4.00;;;;;23.27;57.55;101319.16;5077782;27;45404;-62
2022/07/21 01:07:24;;;;;;;;;4.00;4.00;;;;;23.27;57.76;101322.78;5059789;28;45430;-63
2022/07/21 01:09:49;;;;;;;;;3.25;3.25;;;;;23.19;57.60;101300.13;5059442;28;45466;-64
2022/07/21 01:12:15;;;;;;;;;5.25;4.00;;;;;23.15;57.51;101297.91;5077302;27;45522;-63
2022/07/21 01:14:40;;;;;;;;;5.00;4.00;;;;;23.25;57.58;101316.63;5076270;28;45403;-64
2022/07/21 01:17:06;;;;;;;;;4.00;4.00;;;;;23.26;57.57;101314.69;5077610;27;45407;-66
2022/07/21 01:19:31;;;;;;;;;4.75;3.25;;;;;23.07;57.95;101287.28;5077674;27;45365;-65
2022/07/21 01:21:57;;;;;;;;;4.00;3.00;;;;;23.15;58.36;101311.88;5075928;28;46357;-64
2022/07/21 01:24:22;;;;;;;;;4.00;3.00;;;;;23.22;58.00;101330.34;5076019;28;45476;-65
2022/07/21 01:26:49;;;;;;;;;4.50;4.50;;;;;23.03;58.82;101322.56;5077539;27;45287;-63
2022/07/21 01:29:15;;;;;;;;;3.80;2.80;;;;;22.88;58.62;101315.88;5076936;28;45694;-64
2022/07/21 01:31:41;;;;;;;;;5.50;3.00;;;;;22.99;58.72;101318.63;5077625;27;46624;-64
2022/07/21 01:34:07;;;;;;;;;2.80;2.80;;;;;22.88;58.88;101301.03;5059034;28;45331;-64
2022/07/21 01:36:33;;;;;;;;;6.50;3.75;;;;;23.05;58.89;101311.09;5075636;28;45278;-62
2022/07/21 01:41:43;;;;;;;;;3.80;3.80;;;;;23.02;58.55;101306.88;5039549;28;45926;-62
2022/07/21 01:44:10;;;;;;;;;5.75;5.75;;;;;22.87;58.69;101277.81;5068912;28;45446;-64
2022/07/21 01:46:39;;;;;;;;;2.60;2.60;;;;;22.99;58.56;101297.09;5077222;27;45425;-62
2022/07/21 01:49:05;;;;;;;;;4.00;2.60;;;;;22.79;58.51;101278.38;5059181;28;45334;-64
2022/07/21 01:51:30;;;;;;;;;3.75;3.75;;;;;23.02;58.37;101307.72;5058901;28;45347;-63
2022/07/21 01:53:56;;;;;;;;;3.75;3.75;;;;;22.93;58.62;101291.81;5077311;28;45403;-63
2022/07/21 01:56:22;;;;;;;;;5.00;4.00;;;;;23.01;58.45;101303.25;5077285;27;45408;-61
2022/07/21 01:58:48;;;;;;;;;4.20;4.00;;;;;23.02;58.55;101312.47;5075627;28;45646;-63
2022/07/21 02:01:17;;;;;;;;;6.00;6.00;;;;;22.84;58.48;101286.75;5075385;28;46610;-63
2022/07/21 02:03:43;;;;;;;;;3.40;3.20;;;;;23.00;58.38;101321.16;5059026;28;45422;-62
2022/07/21 02:06:09;;;;;;;;;5.20;4.00;;;;;23.01;58.38;101322.81;5058628;28;45261;-63
2022/07/21 02:08:35;;;;;;;;;3.50;3.50;;;;;22.51;58.52;101246.22;5076413;28;45303;-62
2022/07/21 02:11:00;;;;;;;;;6.00;5.00;;;;;22.95;58.52;101318.34;5075244;28;46393;-63
2022/07/21 02:13:26;;;;;;;;;4.00;4.00;;;;;22.80;58.00;101293.22;5075082;28;45575;-62
2022/07/21 02:15:51;;;;;;;;;4.25;4.25;;;;;22.96;58.40;101331.25;5075674;28;45179;-62
2022/07/21 02:18:17;;;;;;;;;4.75;4.75;;;;;22.94;58.28;101330.69;5075785;28;45595;-62
2022/07/21 02:20:44;;;;;;;;;5.20;3.40;;;;;22.95;58.08;101328.72;5076499;28;46543;-63
2022/07/21 02:23:10;;;;;;;;;4.00;4.00;;;;;22.92;58.20;101329.28;5076192;27;45504;-61
2022/07/21 02:25:36;;;;;;;;;6.00;5.00;;;;;22.87;57.82;101314.19;5076585;27;45348;-61
2022/07/21 02:28:01;;;;;;;;;7.00;7.00;;;;;22.93;57.82;101326.22;5076714;27;45334;-62
2022/07/21 02:30:27;;;;;;;;;7.00;6.25;;;;;22.95;57.80;101320.34;5076131;27;45645;-63
2022/07/21 02:32:53;;;;;;;;;5.75;5.75;;;;;22.83;57.89;101312.25;5076370;27;45210;-63
2022/07/21 02:35:19;;;;;;;;;7.80;5.20;;;;;22.88;58.02;101315.88;5074875;28;45358;-63
2022/07/21 02:37:45;;;;;;;;;5.80;5.80;;;;;22.90;57.64;101323.13;5076547;28;45614;-64
2022/07/21 02:40:10;;;;;;;;;6.00;6.00;;;;;22.87;57.91;101322.59;5075933;28;46104;-63
2022/07/21 02:42:37;;;;;;;;;7.50;5.75;;;;;22.68;57.69;101297.13;5074967;28;45432;-61
2022/07/21 02:45:04;;;;;;;;;6.80;6.80;;;;;22.85;58.13;101324.00;5058441;28;45382;-63
2022/07/21 02:47:30;;;;;;;;;7.60;7.00;;;;;22.65;58.11;101302.44;5074669;27;45415;-61
2022/07/21 02:49:55;;;;;;;;;8.00;6.50;;;;;22.81;58.06;101328.44;5074669;28;46974;-63
2022/07/21 02:52:21;;;;;;;;;7.75;6.00;;;;;22.82;57.60;101330.97;5076072;27;45407;-62
2022/07/21 02:54:46;;;;;;;;;6.00;6.00;;;;;22.83;58.14;101341.03;5074873;28;45293;-61
2022/07/21 02:57:12;;;;;;;;;5.50;5.00;;;;;22.80;58.05;101343.56;5076113;27;45233;-62
2022/07/21 02:59:37;;;;;;;;;7.75;7.25;;;;;22.56;58.22;101322.59;5075673;27;46605;-62
2022/07/21 03:02:03;;;;;;;;;7.25;6.75;;;;;22.76;58.40;101354.47;5075626;27;45353;-62
2022/07/21 03:04:28;;;;;;;;;8.25;8.25;;;;;22.71;58.15;101338.53;5075905;27;45250;-61
2022/07/21 03:06:54;;;;;;;;;9.75;8.50;;;;;22.67;58.36;101331.00;5074845;28;45586;-63
2022/07/21 03:09:19;;;;;;;;;8.00;6.75;;;;;22.71;58.30;101352.53;5075835;27;46837;-62
2022/07/21 03:11:45;;;;;;;;;8.25;8.25;;;;;22.58;58.89;101350.28;5074275;28;45311;-63
2022/07/21 03:14:10;;;;;;;;;7.00;7.00;;;;;22.45;59.63;101360.88;5076058;28;45477;-61
2022/07/21 03:16:36;;;;;;;;;9.75;8.75;;;;;22.37;59.50;101346.59;5075892;27;45513;-63
2022/07/21 03:19:01;;;;;;;;;6.75;6.75;;;;;22.45;59.41;101351.63;5075871;27;45471;-62
2022/07/21 03:21:27;;;;;;;;;8.00;8.00;;;;;22.48;59.25;101362.28;5075133;27;45179;-62
2022/07/21 03:23:52;;;;;;;;;7.75;6.75;;;;;22.46;59.30;101358.91;5075687;28;45437;-62
2022/07/21 03:26:17;;;;;;;;;9.00;7.25;;;;;22.31;59.31;101335.41;5076367;27;45222;-60
2022/07/21 03:28:43;;;;;;;;;9.25;9.25;;;;;22.40;59.34;101352.47;5075949;27;45546;-63
2022/07/21 03:31:09;;;;;;;;;8.00;8.00;;;;;22.49;59.27;101372.34;5057392;28;45424;-63
2022/07/21 03:33:34;;;;;;;;;10.00;10.00;;;;;22.44;59.47;101359.19;5074767;28;45354;-61
2022/07/21 03:35:59;;;;;;;;;10.25;8.50;;;;;22.45;59.41;101372.06;5074858;28;45484;-62
2022/07/21 03:38:25;;;;;;;;;8.00;8.00;;;;;22.24;59.70;101348.81;5075466;27;46202;-64
2022/07/21 03:40:51;;;;;;;;;9.75;9.75;;;;;22.31;60.09;101363.34;5057463;28;45390;-62
2022/07/21 03:43:16;;;;;;;;;7.25;7.25;;;;;22.35;60.04;101377.63;5057202;28;45472;-61
2022/07/21 03:45:42;;;;;;;;;10.75;8.00;;;;;22.29;60.39;101373.97;5054466;28;45415;-62
2022/07/21 03:48:07;;;;;;;;;13.00;12.00;;;;;22.12;60.25;101342.63;5055004;28;45394;-64
2022/07/21 03:50:34;;;;;;;;;9.50;7.75;;;;;22.24;60.46;101373.97;5054146;28;45432;-61
2022/07/21 03:52:59;;;;;;;;;12.60;9.40;;;;;22.23;60.13;101379.81;5054321;28;45367;-62
2022/07/21 03:55:25;;;;;;;;;9.00;9.00;;;;;22.26;60.33;101376.50;5055266;28;45456;-62
2022/07/21 03:57:52;;;;;;;;;12.50;12.00;;;;;22.22;60.41;101381.78;5053786;28;45734;-61
2022/07/21 04:00:20;;;;;;;;;16.60;11.60;;;;;22.13;60.32;101373.09;5039791;28;45511;-62
2022/07/21 04:02:46;;;;;;;;;13.80;12.80;;;;;22.18;60.11;101386.25;5040452;28;45393;-61
2022/07/21 04:05:12;;;;;;;;;16.75;14.75;;;;;22.11;60.31;101378.13;5057821;28;45290;-63
2022/07/21 04:07:42;;;;;;;;;16.25;14.50;;;;;21.98;60.42;101365.50;5058071;28;45449;-60
2022/07/21 04:10:09;;;;;;;;;16.00;16.00;;;;;21.92;60.56;101361.88;5058117;28;45447;-62
2022/07/21 04:12:34;;;;;;;;;18.40;17.80;;;;;22.06;60.50;101380.91;5058426;28;45407;-62
2022/07/21 04:15:00;;;;;;;;;16.00;16.00;;;;;22.07;60.52;101394.63;5057634;28;45346;-63
2022/07/21 04:17:25;;;;;;;;;17.00;16.00;;;;;22.00;60.44;101388.44;5058036;28;46410;-61
2022/07/21 04:19:51;;;;;;;;;16.50;15.00;;;;;22.04;60.48;101392.34;5058293;28;45388;-61
2022/07/21 04:22:16;;;;;;;;;23.75;17.25;;;;;22.07;60.48;101389.03;5057148;28;45433;-60
2022/07/21 04:24:42;;;;;;;;;20.75;17.00;;;;;22.07;60.57;101399.34;5058384;28;45301;-62
2022/07/21 04:27:07;;;;;;;;;19.00;17.75;;;;;21.86;61.03;101401.22;5056481;28;45618;-62
2022/07/21 04:29:33;;;;;;;;;21.75;19.25;;;;;21.83;61.39;101396.19;5058334;28;45238;-62
2022/07/21 04:31:58;;;;;;;;;15.25;15.25;;;;;21.75;61.73;101397.53;5058355;28;45799;-60
2022/07/21 04:34:24;;;;;;;;;17.75;15.50;;;;;21.86;61.37;101399.28;5058458;28;45504;-62
2022/07/21 04:36:49;;;;;;;;;20.00;16.25;;;;;21.98;61.29;101407.41;5057915;28;46315;-61
2022/07/21 04:39:15;;;;;;;;;19.75;16.25;;;;;22.01;61.05;101401.31;5058090;28;45416;-62
2022/07/21 04:41:40;;;;;;;;;13.50;12.50;;;;;22.04;60.85;101400.75;5060101;28;45446;-62
2022/07/21 04:44:06;;;;;;;;;20.00;18.50;;;;;21.94;60.56;101375.56;5078340;27;45305;-62
2022/07/21 04:46:31;;;;;;;;;14.50;14.50;;;;;22.12;60.45;101401.31;5078257;27;45778;-62
2022/07/21 04:48:57;;;;;;;;;21.00;17.00;;;;;22.14;60.53;101399.13;5078171;27;45328;-61
2022/07/21 04:51:22;;;;;;;;;17.25;16.50;;;;;22.09;60.38;101401.88;5078297;27;45467;-60
2022/07/21 04:53:48;;;;;;;;;15.00;15.00;;;;;22.07;60.44;101408.59;5060206;28;45389;-62
2022/07/21 04:56:13;;;;;;;;;20.75;17.25;;;;;22.08;60.68;101417.81;5077970;27;46477;-62
2022/07/21 04:58:39;;;;;;;;;16.50;16.00;;;;;21.99;60.70;101400.72;5078084;27;45337;-62
2022/07/21 05:01:04;;;;;;;;;21.25;19.25;;;;;22.13;60.43;101415.03;5077795;27;45395;-62
2022/07/21 05:03:30;;;;;;;;;20.00;14.25;;;;;22.06;60.61;101412.50;5077188;28;45353;-62
2022/07/21 05:05:55;;;;;;;;;22.50;19.25;;;;;22.05;60.71;101415.56;5076765;28;45589;-62
2022/07/21 05:08:21;;;;;;;;;19.75;17.00;;;;;22.04;60.81;101409.13;5077883;27;45357;-63
2022/07/21 05:10:46;;;;;;;;;17.50;16.75;;;;;21.79;61.15;101388.34;5075363;28;45346;-63
2022/07/21 05:13:12;;;;;;;;;20.75;17.75;;;;;21.94;61.19;101412.72;5077685;28;45356;-61
2022/07/21 05:15:37;;;;;;;;;18.50;17.50;;;;;21.71;61.42;101374.91;5077996;27;46049;-62
2022/07/21 05:18:03;;;;;;;;;18.00;16.75;;;;;21.93;61.18;101413.00;5076303;28;45381;-62
2022/07/21 05:20:28;;;;;;;;;21.25;18.50;;;;;21.96;61.27;101409.66;5077592;27;45176;-61
2022/07/21 05:22:54;;;;;;;;;17.75;17.00;;;;;21.91;61.27;101407.69;5077703;27;45561;-61
2022/07/21 05:25:19;;;;;;;;;18.25;18.25;;;;;22.00;61.17;101416.41;5075758;27;46399;-61
2022/07/21 05:27:45;;;;;;;;;18.75;15.25;;;;;21.97;61.27;101419.72;5076997;27;45352;-62
2022/07/21 05:30:10;;;;;;;;;19.00;17.00;;;;;22.02;61.06;101414.16;5077352;27;45325;-61
2022/07/21 05:32:36;;;;;;;;;16.50;15.75;;;;;22.00;61.09;101409.94;5043555;27;45988;-61
2022/07/21 05:35:08;;;;;;;;;17.00;15.75;;;;;22.02;61.19;101418.91;5075639;28;46578;-62
2022/07/21 05:37:33;;;;;;;;;16.80;16.20;;;;;22.11;61.01;101419.22;5077100;27;45376;-62
2022/07/21 05:39:59;;;;;;;;;20.50;19.00;;;;;22.16;60.64;101416.44;5077434;27;45862;-62
2022/07/21 05:42:24;;;;;;;;;18.25;18.25;;;;;22.20;60.83;101431.56;5069984;28;45331;-62
2022/07/21 05:44:50;;;;;;;;;17.00;17.00;;;;;22.18;60.68;101431.81;5056979;28;45677;-62
2022/07/21 05:47:15;;;;;;;;;24.75;20.75;;;;;22.15;60.75;101428.75;5056649;28;45310;-61
2022/07/21 05:49:41;;;;;;;;;18.25;17.25;;;;;22.09;60.87;101429.84;5055567;28;45460;-60
2022/07/21 05:52:06;;;;;;;;;18.50;17.75;;;;;21.90;60.63;101380.00;5056738;28;45579;-62
2022/07/21 05:54:32;;;;;;;;;19.00;18.00;;;;;22.16;60.63;101430.41;5056605;28;45716;-62
2022/07/21 05:56:58;;;;;;;;;18.50;17.50;;;;;22.11;60.95;101436.84;5056639;28;45282;-60
2022/07/21 05:59:23;;;;;;;;;20.00;17.80;;;;;21.85;61.36;101410.72;5056399;28;45400;-61
2022/07/21 06:01:49;;;;;;;;;16.75;14.75;;;;;21.92;61.42;101431.72;5055366;28;45386;-62
2022/07/21 06:04:14;;;;;;;;;21.75;18.25;;;;;21.80;61.87;101436.69;5056424;28;46198;-60
2022/07/21 06:06:40;;;;;;;;;19.00;19.00;;;;;21.73;62.06;101444.47;5056447;28;45265;-63
2022/07/21 06:09:05;;;;;;;;;23.00;18.50;;;;;21.59;62.36;101446.84;5056164;28;45400;-62
2022/07/21 06:11:30;;;;;;;;;24.25;21.75;;;;;21.60;62.52;101446.59;5038782;28;45367;-62
2022/07/21 06:13:56;;;;;;;;;24.25;22.75;;;;;21.61;62.40;101437.09;5055959;28;46608;-62
2022/07/21 06:16:21;;;;;;;;;24.25;23.25;;;;;21.76;62.41;101449.50;5055010;28;45225;-63
2022/07/21 06:18:47;;;;;;;;;16.75;16.75;;;;;21.74;62.15;101424.66;5054715;28;45462;-62
2022/07/21 06:21:12;;;;;;;;;25.75;22.50;;;;;22.01;61.74;101448.81;5055226;28;45355;-60
2022/07/21 06:23:38;;;;;;;;;19.50;18.75;;;;;21.93;61.87;101447.38;5055387;28;46269;-62
2022/07/21 06:26:03;;;;;;;;;22.50;21.25;;;;;22.01;61.58;101453.53;5054849;28;45443;-62
2022/07/21 06:28:29;;;;;;;;;28.25;24.50;;;;;22.07;61.23;101450.50;5054953;28;45369;-62
2022/07/21 06:30:54;;;;;;;;;26.00;22.75;;;;;22.21;61.15;101450.00;5056674;28;45578;-62
2022/07/21 06:33:20;;;;;;;;;22.50;19.25;;;;;22.19;61.01;101460.59;5054674;28;48270;-63
2022/07/21 06:35:46;;;;;;;;;24.50;20.75;;;;;22.23;61.06;101461.75;5055837;28;45326;-64
2022/07/21 06:38:11;;;;;;;;;17.00;16.00;;;;;22.32;60.79;101454.50;5056425;28;45348;-63
2022/07/21 06:40:37;;;;;;;;;20.75;20.75;;;;;22.21;60.64;101428.47;5056326;28;45396;-63
2022/07/21 06:43:02;;;;;;;;;20.75;20.75;;;;;22.45;60.29;101457.91;5066357;28;45676;-63
2022/07/21 06:45:28;;;;;;;;;21.00;20.00;;;;;22.36;60.22;101437.19;5076234;28;45430;-64
2022/07/21 06:48:07;;;;;;;;;21.50;21.00;;;;;22.50;60.27;101454.28;5058233;28;45512;-63
2022/07/21 06:50:33;;;;;;;;;23.80;23.80;;;;;22.46;60.20;101452.03;5058654;28;45318;-62
2022/07/21 06:52:58;;;;;;;;;24.00;21.00;;;;;22.42;60.23;101461.25;5075023;28;45786;-63
2022/07/21 06:55:24;;;;;;;;;19.50;17.50;;;;;22.44;60.69;101453.44;5074917;28;45295;-63
2022/07/21 06:57:49;;;;;;;;;25.00;22.75;;;;;22.40;60.36;101436.34;5076300;27;45279;-63
2022/07/21 07:00:15;;;;;;;;;19.00;17.25;;;;;22.54;60.27;101456.28;5076102;27;45406;-64
2022/07/21 07:02:42;;;;;;;;;31.00;24.60;;;;;22.45;60.10;101467.13;5067243;27;46955;-62
2022/07/21 07:05:07;;;;;;;;;20.80;18.00;;;;;22.34;60.70;101455.09;5070846;27;45378;-64
2022/07/21 07:07:33;;;;;;;;;23.50;20.75;;;;;22.41;60.71;101465.19;5074952;28;45550;-65
2022/07/21 07:09:59;;;;;;;;;25.50;22.25;;;;;22.41;60.01;101443.63;5076367;27;45279;-64
2022/07/21 07:12:25;;;;;;;;;27.75;25.00;;;;;22.57;60.16;101463.28;5074302;28;45960;-63
2022/07/21 07:14:50;;;;;;;;;27.20;25.00;;;;;22.43;60.36;101472.19;5074330;28;45428;-61
2022/07/21 07:17:18;;;;;;;;;18.75;17.75;;;;;22.42;60.49;101478.03;5076153;27;45288;-63
2022/07/21 07:19:44;;;;;;;;;22.40;20.40;;;;;22.47;60.39;101472.47;5074349;28;45572;-65
2022/07/21 07:22:10;;;;;;;;;21.20;20.00;;;;;22.56;60.08;101475.56;5074439;28;45706;-63
2022/07/21 07:24:35;;;;;;;;;32.25;26.50;;;;;22.50;60.21;101452.31;5074332;28;45597;-63
2022/07/21 07:27:01;;;;;;;;;23.75;19.75;;;;;22.73;59.89;101470.59;5075519;27;45395;-63
2022/07/21 07:29:28;;;;;;;;;23.50;19.50;;;;;22.77;59.67;101481.25;5074405;28;45538;-61
2022/07/21 07:31:54;;;;;;;;;24.00;24.00;;;;;22.70;59.70;101454.38;5041155;28;47642;-60
2022/07/21 07:34:19;;;;;;;;;17.25;17.25;;;;;22.94;59.53;101479.00;5075344;28;45410;-63
2022/07/21 07:36:45;;;;;;;;;22.75;22.75;;;;;22.96;58.98;101482.38;5041625;27;45588;-63
2022/07/21 07:39:10;;;;;;;;;22.75;19.50;;;;;22.98;58.87;101477.34;5067862;28;45567;-62
2022/07/21 07:41:36;;;;;;;;;19.25;17.75;;;;;23.04;58.92;101478.19;5076723;27;46599;-63
2022/07/21 07:44:01;;;;;;;;;25.00;21.75;;;;;22.91;58.78;101461.94;5076951;27;45470;-63
2022/07/21 07:46:27;;;;;;;;;17.50;16.75;;;;;22.79;58.91;101437.03;5086843;27;45409;-61
2022/07/21 07:48:53;;;;;;;;;20.25;16.75;;;;;23.11;59.41;101480.72;5099313;27;45321;-64
2022/07/21 07:51:18;;;;;;;;;21.25;21.25;;;;;23.22;58.82;101487.97;5098930;27;46375;-64
2022/07/21 07:53:44;;;;;;;;;23.25;20.50;;;;;23.11;58.25;101456.34;5098967;27;45324;-62
2022/07/21 07:56:09;;;;;;;;;19.50;18.75;;;;;23.20;58.38;101464.19;5099315;27;45377;-63
2022/07/21 07:58:35;;;;;;;;;21.75;19.00;;;;;23.44;58.48;101491.66;5099442;27;45307;-63
2022/07/21 08:01:00;;;;;;;;;19.25;18.00;;;;;23.38;57.81;101482.41;5098680;27;46156;-63
2022/07/21 08:03:26;;;;;;;;;18.00;16.25;;;;;23.34;58.18;101476.53;5061697;27;46064;-62
2022/07/21 08:05:52;;;;;;;;;23.00;22.00;;;;;23.45;58.24;101496.97;5060692;28;45433;-63
2022/07/21 08:08:18;;;;;;;;;24.00;20.00;;;;;23.33;57.89;101486.06;5078783;27;45441;-62
2022/07/21 08:10:45;;;;;;;;;18.75;17.75;;;;;23.45;57.88;101498.91;5076705;28;45488;-62
2022/07/21 08:13:15;;;;;;;;;22.80;19.60;;;;;23.44;58.29;101502.84;5077018;28;45425;-62
2022/07/21 08:15:41;;;;;;;;;25.60;23.40;;;;;23.46;57.89;101506.19;5077285;28;45476;-61
2022/07/21 08:18:07;;;;;;;;;24.25;21.75;;;;;23.47;57.99;101507.91;5060589;28;45304;-64
2022/07/21 08:20:33;;;;;;;;;23.25;20.50;;;;;23.42;57.72;101503.97;5076813;28;45840;-63
2022/07/21 08:22:58;;;;;;;;;26.20;25.00;;;;;23.44;57.83;101512.09;5077295;28;45310;-63
2022/07/21 08:25:24;;;;;;;;;19.50;19.50;;;;;23.35;57.85;101500.63;5076835;28;45594;-64
2022/07/21 08:27:49;;;;;;;;;27.50;22.50;;;;;23.50;57.80;101512.94;5078538;27;45488;-64
2022/07/21 08:30:15;;;;;;;;;28.50;22.00;;;;;23.50;57.64;101522.19;5076944;28;46357;-63
2022/07/21 08:32:40;;;;;;;;;27.00;25.00;;;;;23.45;58.05;101522.19;5077294;28;45438;-65
2022/07/21 08:35:08;;;;;;;;;29.25;24.50;;;;;23.46;57.76;101509.84;5077233;28;45399;-62
2022/07/21 08:37:35;;;;;;;;;26.20;26.00;;;;;23.46;57.59;101514.59;5077617;28;45393;-64
2022/07/21 08:40:02;;;;;;;;;25.20;21.60;;;;;23.51;57.64;101515.47;5078138;27;45372;-64
2022/07/21 08:42:27;;;;;;;;;26.00;23.40;;;;;23.64;57.48;101519.63;5078247;27;45397;-64
2022/07/21 08:44:53;;;;;;;;;29.50;28.50;;;;;23.69;56.75;101511.22;5059833;28;45219;-62
2022/07/21 08:47:18;;;;;;;;;21.75;21.75;;;;;23.81;57.07;101519.31;5068492;28;45561;-62
2022/07/21 08:49:45;;;;;;;;;26.00;23.00;;;;;23.90;56.97;101515.97;5056190;28;45474;-62
2022/07/21 08:52:11;;;;;;;;;27.00;24.00;;;;;23.80;56.35;101500.00;5040240;28;45708;-64
2022/07/21 08:54:36;;;;;;;;;25.25;21.75;;;;;23.88;56.05;101505.03;5056469;28;45460;-61
2022/07/21 08:57:02;;;;;;;;;25.25;22.25;;;;;23.94;55.90;101512.31;5056591;28;45607;-63
2022/07/21 08:59:27;;;;;;;;;28.00;24.75;;;;;23.91;56.33;101518.47;5057428;28;46100;-61
2022/07/21 09:01:53;;;;;;;;;22.50;21.25;;;;;23.95;56.17;101516.78;5057628;28;45409;-55
2022/07/21 09:04:23;;;;;;;;;20.75;19.00;;;;;24.00;56.26;101504.72;5057891;28;45326;-62
2022/07/21 09:07:02;;;;;;;;;24.40;23.00;;;;;23.89;56.23;101517.06;5035102;28;45531;-63
2022/07/21 09:09:28;;;;;;;;;24.20;21.40;;;;;23.88;56.33;101507.84;5040140;28;46496;-64
2022/07/21 09:11:54;;;;;;;;;22.20;22.20;;;;;24.02;56.34;101507.22;5056344;28;45370;-63
2022/07/21 09:14:21;;;;;;;;;21.20;19.60;;;;;24.07;55.66;101505.28;5039908;28;45396;-64
2022/07/21 09:16:52;;;;;;;;;18.80;17.60;;;;;24.13;55.77;101494.03;5056636;28;45639;-64
2022/07/21 09:19:22;;;;;;;;;19.20;19.00;;;;;24.39;54.87;101510.78;5056172;28;46540;-62
2022/07/21 09:21:48;;;;;;;;;24.40;23.80;;;;;24.38;55.40;101490.28;5057271;28;45305;-63
2022/07/21 09:24:29;;;;;;;;;17.80;17.80;;;;;24.29;54.78;101459.22;5055840;28;45390;-63
2022/07/21 09:27:05;;;;;;;;;24.00;19.60;;;;;24.34;54.01;101469.56;5056127;28;45443;-62
2022/07/21 09:29:39;;;;;;;;;21.80;18.60;;;;;24.34;54.69;101511.63;5056853;28;46329;-63
2022/07/21 09:32:20;;;;;;;;;19.80;18.60;;;;;24.16;55.46;101511.13;5038884;28;45268;-63
2022/07/21 09:34:47;;;;;;;;;19.00;19.00;;;;;24.24;55.59;101515.31;5072325;28;45495;-64
2022/07/21 09:37:12;;;;;;;;;21.40;20.20;;;;;24.33;55.59;101513.59;5055907;28;45295;-63
2022/07/21 09:39:44;;;;;;;;;28.00;22.75;;;;;24.31;55.26;101496.22;5056454;28;45973;-64
2022/07/21 09:42:23;;;;;;;;;22.80;22.00;;;;;24.41;54.66;101500.09;5055404;28;45402;-62
2022/07/21 09:44:51;;;;;;;;;20.40;18.40;;;;;24.44;54.51;101517.19;5072265;28;45243;-64
2022/07/21 09:47:18;;;;;;;;;18.00;18.00;;;;;24.48;54.95;101518.28;5024135;28;45831;-62
2022/07/21 09:49:43;;;;;;;;;17.40;16.80;;;;;24.52;54.42;101515.75;5071451;27;46052;-63
2022/07/21 09:52:22;;;;;;;;;21.50;20.50;;;;;24.44;53.95;101510.75;5069351;28;45835;-63
2022/07/21 09:54:47;;;;;;;;;22.20;20.80;;;;;24.46;54.32;101514.94;5063840;27;45605;-63
2022/07/21 09:57:15;;;;;;;;;20.00;18.00;;;;;24.32;54.50;101488.63;5050414;28;45389;-63
2022/07/21 09:59:43;;;;;;;;;18.40;17.40;;;;;24.45;54.41;101516.06;5050204;28;46786;-63
2022/07/21 10:02:10;;;;;;;;;24.80;23.00;;;;;24.36;54.20;101486.94;5033788;28;45446;-63
2022/07/21 10:04:36;;;;;;;;;21.00;19.60;;;;;24.40;54.60;101495.63;5050885;28;45868;-62
2022/07/21 10:07:01;;;;;;;;;22.00;20.25;;;;;24.48;54.63;101507.06;5040339;28;45963;-61
2022/07/21 10:09:27;;;;;;;;;14.75;14.50;;;;;24.39;54.43;101494.78;5048582;27;45897;-62
2022/07/21 10:11:52;;;;;;;;;21.00;19.50;;;;;24.46;54.24;101494.47;5042080;28;45836;-64
2022/07/21 10:14:18;;;;;;;;;18.75;18.75;;;;;24.49;54.48;101500.34;5069812;28;45357;-63
2022/07/21 10:16:43;;;;;;;;;22.25;20.50;;;;;24.55;53.96;101501.13;5070633;28;45471;-63
2022/07/21 10:19:27;;;;;;;;;20.50;20.25;;;;;24.62;53.74;101504.50;5058144;27;45591;-64
2022/07/21 10:21:59;;;;;;;;;22.00;20.40;;;;;24.63;54.18;101508.13;5050231;28;48584;-61
2022/07/21 10:24:29;;;;;;;;;21.60;19.80;;;;;24.65;54.13;101511.47;5068724;28;46028;-63
2022/07/21 10:27:10;;;;;;;;;18.00;17.80;;;;;24.53;54.00;101511.81;5054925;28;45326;-62
2022/07/21 10:29:47;;;;;;;;;22.20;21.20;;;;;24.32;53.92;101489.47;5071948;28;45569;-63
2022/07/21 10:32:14;;;;;;;;;20.40;19.00;;;;;24.52;54.10;101512.09;5051194;28;45809;-62
2022/07/21 10:34:40;;;;;;;;;19.20;18.20;;;;;24.50;54.67;101506.78;5034880;28;45369;-62
2022/07/21 10:37:05;;;;;;;;;25.50;22.50;;;;;24.57;54.00;101512.94;5072185;27;45735;-63
2022/07/21 10:39:31;;;;;;;;;18.50;16.75;;;;;24.50;54.33;101518.03;5071378;27;46367;-63
2022/07/21 10:41:58;;;;;;;;;23.25;21.00;;;;;24.60;54.05;101517.13;5049429;28;45340;-61
2022/07/21 10:44:27;;;;;;;;;21.60;20.00;;;;;24.76;54.61;101515.91;5049750;28;45611;-63
2022/07/21 10:47:20;;;;;;;;;18.40;18.40;;;;;24.82;53.54;101508.34;5038132;28;45740;-61
2022/07/21 10:50:01;;;;;;;;;21.40;20.80;;;;;24.88;53.33;101511.94;5039523;28;45904;-62
2022/07/21 10:52:38;;;;;;;;;23.80;22.80;;;;;24.81;54.12;101508.63;5050013;28;45406;-59
2022/07/21 10:55:09;;;;;;;;;21.00;20.40;;;;;24.87;53.51;101515.88;5057147;28;45860;-63
2022/07/21 10:57:36;;;;;;;;;19.40;18.60;;;;;24.91;53.31;101511.34;5072058;28;45335;-61
2022/07/21 11:00:28;;;;;;;;;23.60;21.80;;;;;24.93;53.03;101511.91;5068603;28;45933;-62
2022/07/21 11:02:58;;;;;;;;;18.20;16.60;;;;;24.93;52.75;101502.63;5066876;28;45786;-59
2022/07/21 11:05:25;;;;;;;;;19.80;19.20;;;;;25.02;52.33;101506.47;5070077;28;45604;-63
2022/07/21 11:08:11;;;;;;;;;21.40;19.40;;;;;24.92;52.26;101467.28;5055778;28;45460;-59
2022/07/21 11:10:38;;;;;;;;;21.00;19.20;;;;;25.22;52.96;101499.88;5061745;28;46531;-61
2022/07/21 11:13:03;;;;;;;;;20.00;20.00;;;;;25.14;52.41;101486.47;5073365;28;45426;-62
2022/07/21 11:15:58;;;;;;;;;19.25;19.25;;;;;25.19;51.95;101500.47;5073792;28;45691;-60